createdAt,value
2022-11-15T00:02:59.155Z,48.83
2022-11-15T00:05:48.420Z,42.92
2022-11-15T00:08:38.473Z,50.20
2022-11-15T00:11:27.314Z,56.35
2022-11-15T00:14:18.292Z,48.63
2022-11-15T00:17:06.791Z,63.10
2022-11-15T00:19:56.169Z,50.33
2022-11-15T00:22:45.370Z,55.95
2022-11-15T00:25:35.670Z,48.67
2022-11-15T00:28:24.840Z,45.40
2022-11-15T00:31:17.229Z,55.35
2022-11-15T00:34:06.197Z,48.80
2022-11-15T00:36:55.320Z,53.28
2022-11-15T00:39:44.446Z,49.22
2022-11-15T00:42:33.670Z,51.90
2022-11-15T00:45:22.733Z,54.70
2022-11-15T00:48:13.868Z,54.53
2022-11-15T00:51:02.757Z,57.45
2022-11-15T00:53:52.451Z,66.75
2022-11-15T00:56:41.539Z,62.45
2022-11-15T00:59:31.171Z,57.55
2022-11-15T01:02:20.037Z,66.82
2022-11-15T01:05:12.151Z,60.63
2022-11-15T01:08:01.698Z,60.75
2022-11-15T01:10:51.720Z,70.07
2022-11-15T01:13:41.410Z,65.75
2022-11-15T01:16:31.079Z,64.78
2022-11-15T01:19:20.241Z,67.13
2022-11-15T01:22:11.230Z,64.82
2022-11-15T01:25:00.439Z,56.10
2022-11-15T01:27:50.050Z,63.25
2022-11-15T01:30:39.860Z,67.32
2022-11-15T01:33:29.654Z,64.75
2022-11-15T01:36:23.152Z,68.70
2022-11-15T01:39:14.787Z,63.20
2022-11-15T01:42:04.180Z,66.78
2022-11-15T01:44:57.191Z,65.78
2022-11-15T01:47:52.407Z,74.15
2022-11-15T01:50:42.080Z,63.20
2022-11-15T01:53:34.995Z,65.65
2022-11-15T01:56:28.990Z,64.70
2022-11-15T01:59:18.803Z,63.67
2022-11-15T02:02:08.238Z,62.90
2022-11-15T02:04:57.447Z,64.43
2022-11-15T02:07:47.677Z,71.60
2022-11-15T02:10:37.079Z,68.93
2022-11-15T02:13:29.529Z,73.55
2022-11-15T02:16:29.208Z,79.15
2022-11-15T02:19:35.316Z,79.55
2022-11-15T02:22:39.000Z,80.25
2022-11-15T02:25:42.023Z,76.78
2022-11-15T02:28:51.890Z,82.20
2022-11-15T02:31:52.698Z,74.85
2022-11-15T02:34:54.420Z,71.22
2022-11-15T02:37:48.180Z,75.22
2022-11-15T02:40:47.969Z,72.97
2022-11-15T02:44:01.207Z,70.40
2022-11-15T02:47:11.631Z,69.18
2022-11-15T02:50:04.991Z,75.78
2022-11-15T02:52:54.110Z,83.68
2022-11-15T02:55:49.707Z,72.85
2022-11-15T02:59:17.047Z,65.22
2022-11-15T03:02:19.889Z,78.82
2022-11-15T03:05:18.349Z,71.57
2022-11-15T03:08:13.279Z,82.53
2022-11-15T03:11:10.956Z,73.28
2022-11-15T03:14:04.950Z,70.05
2022-11-15T03:17:01.578Z,76.28
2022-11-15T03:19:56.618Z,72.03
2022-11-15T03:22:48.738Z,76.30
2022-11-15T03:25:41.468Z,77.85
2022-11-15T03:31:50.437Z,70.05
2022-11-15T03:34:44.019Z,77.10
2022-11-15T03:37:40.470Z,64.60
2022-11-15T03:40:33.950Z,68.65
2022-11-15T03:43:33.908Z,76.18
2022-11-15T03:46:27.600Z,74.00
2022-11-15T03:49:22.831Z,68.78
2022-11-15T03:52:12.870Z,67.43
2022-11-15T03:55:06.799Z,77.70
2022-11-15T03:57:59.433Z,77.47
2022-11-15T04:00:49.409Z,72.68
2022-11-15T04:03:38.523Z,64.13
2022-11-15T04:06:28.249Z,65.10
2022-11-15T04:09:17.668Z,65.47
2022-11-15T04:12:09.060Z,59.38
2022-11-15T04:15:09.637Z,56.97
2022-11-15T04:18:00.828Z,63.60
2022-11-15T04:21:03.380Z,67.07
2022-11-15T04:24:10.140Z,65.05
2022-11-15T04:26:59.352Z,58.47
2022-11-15T04:29:50.940Z,65.10
2022-11-15T04:32:42.540Z,64.65
2022-11-15T04:35:32.798Z,67.10
2022-11-15T04:38:21.052Z,74.20
2022-11-15T04:41:10.089Z,66.68
2022-11-15T04:43:59.199Z,67.85
2022-11-15T04:46:50.322Z,60.45
2022-11-15T04:49:39.343Z,63.03
2022-11-15T04:52:28.689Z,62.58
2022-11-15T04:55:18.327Z,62.75
2022-11-15T04:58:08.219Z,54.53
2022-11-15T05:00:57.382Z,57.78
2022-11-15T05:04:06.169Z,54.17
2022-11-15T05:06:55.498Z,58.47
2022-11-15T05:09:45.260Z,61.22
2022-11-15T05:12:34.400Z,64.28
2022-11-15T05:15:24.659Z,59.47
2022-11-15T05:18:18.224Z,69.13
2022-11-15T05:21:14.023Z,64.82
2022-11-15T05:24:03.059Z,56.72
2022-11-15T05:26:52.641Z,60.95
2022-11-15T05:29:41.359Z,65.75
2022-11-15T05:32:31.769Z,64.82
2022-11-15T05:35:27.657Z,53.40
2022-11-15T05:38:19.398Z,48.20
2022-11-15T05:41:09.329Z,47.35
2022-11-15T05:44:00.498Z,52.28
2022-11-15T05:46:55.220Z,47.08
2022-11-15T05:49:47.438Z,51.05
2022-11-15T05:52:40.740Z,51.67
2022-11-15T05:55:32.178Z,44.90
2022-11-15T05:58:22.699Z,44.97
2022-11-15T06:01:12.777Z,46.90
2022-11-15T06:04:01.808Z,47.95
2022-11-15T06:06:51.204Z,50.28
2022-11-15T06:09:39.838Z,41.47
2022-11-15T06:12:30.659Z,38.15
2022-11-15T06:15:19.570Z,42.65
2022-11-15T06:18:16.140Z,35.65
2022-11-15T06:21:11.559Z,38.03
2022-11-15T06:24:01.059Z,38.10
2022-11-15T06:26:50.459Z,34.95
2022-11-15T06:29:42.818Z,40.75
2022-11-15T06:32:33.900Z,35.17
2022-11-15T06:35:23.500Z,34.72
2022-11-15T06:38:13.950Z,38.53
2022-11-15T06:41:06.007Z,38.55
2022-11-15T06:46:45.660Z,37.42
2022-11-15T06:49:37.742Z,39.97
2022-11-15T06:52:27.937Z,34.45
2022-11-15T06:55:18.583Z,36.67
2022-11-15T07:01:02.880Z,34.15
2022-11-15T07:03:54.281Z,34.55
2022-11-15T07:06:43.944Z,37.17
2022-11-15T07:09:34.142Z,34.33
2022-11-15T07:12:24.622Z,38.10
2022-11-15T07:15:15.410Z,34.42
2022-11-15T07:18:04.850Z,37.13
2022-11-15T07:20:55.892Z,35.35
2022-11-15T07:23:45.141Z,35.72
2022-11-15T07:26:36.367Z,36.47
2022-11-15T07:29:28.561Z,38.80
2022-11-15T07:32:18.781Z,35.88
2022-11-15T07:35:08.261Z,33.58
2022-11-15T07:38:00.408Z,38.88
2022-11-15T07:40:50.038Z,44.03
2022-11-15T07:43:40.191Z,34.65
2022-11-15T07:46:29.044Z,37.40
2022-11-15T07:49:18.506Z,31.33
2022-11-15T07:52:08.275Z,32.28
2022-11-15T07:54:59.484Z,32.45
2022-11-15T07:57:49.036Z,33.40
2022-11-15T08:00:40.017Z,32.83
2022-11-15T08:03:28.627Z,37.85
2022-11-15T08:06:19.023Z,31.38
2022-11-15T08:09:08.304Z,37.13
2022-11-15T08:12:00.112Z,35.47
2022-11-15T08:14:49.229Z,33.87
2022-11-15T08:17:38.899Z,34.90
2022-11-15T08:20:31.114Z,39.55
2022-11-15T08:23:21.336Z,36.03
2022-11-15T08:26:11.836Z,38.30
2022-11-15T08:29:03.126Z,32.70
2022-11-15T08:31:52.095Z,37.60
2022-11-15T08:34:44.345Z,35.13
2022-11-15T08:37:33.043Z,33.25
2022-11-15T08:40:24.306Z,33.00
2022-11-15T08:43:14.257Z,35.77
2022-11-15T08:46:05.798Z,36.72
2022-11-15T08:48:54.663Z,36.00
2022-11-15T08:51:45.142Z,38.70
2022-11-15T08:54:34.543Z,31.92
2022-11-15T08:57:23.896Z,36.08
2022-11-15T09:00:14.692Z,35.63
2022-11-15T09:03:08.162Z,34.90
2022-11-15T09:05:59.158Z,31.17
2022-11-15T09:08:50.012Z,34.03
2022-11-15T09:11:38.973Z,36.90
2022-11-15T09:14:29.831Z,34.87
2022-11-15T09:17:24.393Z,36.55
2022-11-15T09:20:17.202Z,33.78
2022-11-15T09:23:07.451Z,34.10
2022-11-15T09:26:03.232Z,30.42
2022-11-15T09:28:52.154Z,32.08
2022-11-15T09:31:41.994Z,34.35
2022-11-15T09:34:30.925Z,38.97
2022-11-15T09:37:25.202Z,33.22
2022-11-15T09:40:20.532Z,34.28
2022-11-15T09:43:29.752Z,36.50
2022-11-15T09:46:27.923Z,32.90
2022-11-15T09:49:23.941Z,31.88
2022-11-15T09:52:13.212Z,30.77
2022-11-15T09:54:54.293Z,31.70
2022-11-15T09:57:33.255Z,29.98
2022-11-15T10:03:13.989Z,33.75
2022-11-15T10:05:47.223Z,33.28
2022-11-15T10:08:39.552Z,33.03
2022-11-15T10:14:15.806Z,33.67
2022-11-15T10:17:16.721Z,27.20
2022-11-15T10:20:05.365Z,31.05
2022-11-15T10:22:43.249Z,32.80
2022-11-15T10:25:21.081Z,37.08
2022-11-15T10:27:59.595Z,32.35
2022-11-15T10:30:36.660Z,33.83
2022-11-15T10:33:34.994Z,35.42
2022-11-15T10:36:22.602Z,44.38
2022-11-15T10:38:59.373Z,37.92
2022-11-15T10:41:40.113Z,36.15
2022-11-15T10:44:25.897Z,35.30
2022-11-15T10:47:25.642Z,35.30
2022-11-15T10:50:02.889Z,36.17
2022-11-15T10:52:35.900Z,31.48
2022-11-15T10:55:23.141Z,34.50
2022-11-15T10:57:56.396Z,36.80
2022-11-15T11:00:36.241Z,32.33
2022-11-15T11:03:08.962Z,33.85
2022-11-15T11:05:43.203Z,33.03
2022-11-15T11:08:26.692Z,31.27
2022-11-15T11:11:02.474Z,35.72
2022-11-15T11:13:35.304Z,39.15
2022-11-15T11:16:44.492Z,46.63
2022-11-15T11:19:49.299Z,42.92
2022-11-15T11:22:30.660Z,43.35
2022-11-15T11:25:15.564Z,39.97
2022-11-15T11:27:53.256Z,38.60
2022-11-15T11:30:32.642Z,41.13
2022-11-15T11:33:16.733Z,52.25
2022-11-15T11:36:01.844Z,38.10
2022-11-15T11:38:55.980Z,40.67
2022-11-15T11:41:50.475Z,37.97
2022-11-15T11:44:32.355Z,32.00
2022-11-15T11:47:06.714Z,35.17
2022-11-15T11:49:47.791Z,39.85
2022-11-15T11:52:25.051Z,35.53
2022-11-15T11:55:06.803Z,41.15
2022-11-15T12:00:22.955Z,42.80
2022-11-15T12:03:07.070Z,44.53
2022-11-15T12:05:45.790Z,40.75
2022-11-15T12:08:35.704Z,40.85
2022-11-15T12:11:17.979Z,38.15
2022-11-15T12:16:29.144Z,47.58
2022-11-15T12:19:06.280Z,48.25
2022-11-15T12:21:46.800Z,44.28
2022-11-15T12:24:22.958Z,48.05
2022-11-15T12:27:01.081Z,42.53
2022-11-15T12:29:36.852Z,47.45
2022-11-15T12:32:20.131Z,45.28
2022-11-15T12:34:53.289Z,43.80
2022-11-15T12:37:51.420Z,47.78
2022-11-15T12:40:25.480Z,45.47
2022-11-15T12:43:08.501Z,46.03
2022-11-15T12:45:40.419Z,47.70
2022-11-15T12:48:59.244Z,47.08
2022-11-15T12:52:07.311Z,51.38
2022-11-15T12:55:29.761Z,47.60
2022-11-15T12:58:42.242Z,44.50
2022-11-15T13:01:34.431Z,49.90
2022-11-15T13:06:46.280Z,50.00
2022-11-15T13:09:56.157Z,48.65
2022-11-15T13:13:00.713Z,46.30
2022-11-15T13:15:58.541Z,48.80
2022-11-15T13:18:44.441Z,47.50
2022-11-15T13:21:43.633Z,50.53
2022-11-15T13:24:18.743Z,50.70
2022-11-15T13:27:07.811Z,45.55
2022-11-15T13:29:41.422Z,49.15
2022-11-15T13:32:21.767Z,46.78
2022-11-15T13:34:55.238Z,40.20
2022-11-15T13:37:35.689Z,46.38
2022-11-15T13:40:38.263Z,55.05
2022-11-15T13:43:38.004Z,48.53
2022-11-15T13:46:26.661Z,48.63
2022-11-15T13:49:55.519Z,46.80
2022-11-15T13:53:06.844Z,39.88
2022-11-15T13:55:44.931Z,47.85
2022-11-15T13:58:24.032Z,45.83
2022-11-15T14:01:06.229Z,43.42
2022-11-15T14:03:52.791Z,46.85
2022-11-15T14:06:27.142Z,42.60
2022-11-15T14:09:42.879Z,40.63
2022-11-15T14:12:37.994Z,38.47
2022-11-15T14:15:39.916Z,43.80
2022-11-15T14:18:44.403Z,40.45
2022-11-15T14:21:25.911Z,39.40
2022-11-15T14:24:17.901Z,43.72
2022-11-15T14:27:02.115Z,36.53
2022-11-15T14:29:39.669Z,38.10
2022-11-15T14:32:21.803Z,35.30
2022-11-15T14:35:02.237Z,37.55
2022-11-15T14:37:52.093Z,42.60
2022-11-15T14:40:44.552Z,44.30
2022-11-15T14:43:20.941Z,40.75
2022-11-15T14:46:06.687Z,38.47
2022-11-15T14:48:47.147Z,39.15
2022-11-15T14:51:39.593Z,32.40
2022-11-15T14:54:31.308Z,35.30
2022-11-15T14:57:12.057Z,39.28
2022-11-15T14:59:59.160Z,48.67
2022-11-15T15:03:09.983Z,37.08
2022-11-15T15:08:41.059Z,31.83
2022-11-15T15:11:20.631Z,31.63
2022-11-15T15:13:57.288Z,42.00
2022-11-15T15:16:50.721Z,31.63
2022-11-15T15:19:32.300Z,31.45
2022-11-15T15:22:09.134Z,38.58
2022-11-15T15:24:48.408Z,36.05
2022-11-15T15:27:26.248Z,31.85
2022-11-15T15:30:16.203Z,36.05
2022-11-15T15:32:57.282Z,40.20
2022-11-15T15:35:39.492Z,36.83
2022-11-15T15:38:23.474Z,37.28
2022-11-15T15:41:29.544Z,35.47
2022-11-15T15:44:11.618Z,38.28
2022-11-15T15:46:48.319Z,40.22
2022-11-15T15:49:40.190Z,43.58
2022-11-15T15:52:20.111Z,40.20
2022-11-15T15:55:18.809Z,36.58
2022-11-15T15:57:56.504Z,40.28
2022-11-15T16:00:39.968Z,38.38
2022-11-15T16:03:16.183Z,34.85
2022-11-15T16:05:57.301Z,40.45
2022-11-15T16:08:47.682Z,35.08
2022-11-15T16:11:38.829Z,32.65
2022-11-15T16:14:25.990Z,35.08
2022-11-15T16:17:20.382Z,32.80
2022-11-15T16:20:34.141Z,38.45
2022-11-15T16:23:15.878Z,34.90
2022-11-15T16:25:57.572Z,32.78
2022-11-15T16:28:40.631Z,35.60
2022-11-15T16:31:22.364Z,37.60
2022-11-15T16:36:58.469Z,38.60
2022-11-15T16:39:32.090Z,35.88
2022-11-15T16:42:04.423Z,31.83
2022-11-15T16:44:37.734Z,36.58
2022-11-15T16:47:16.149Z,41.65
2022-11-15T16:49:51.653Z,42.85
2022-11-15T16:52:25.757Z,45.75
2022-11-15T16:54:56.824Z,39.83
2022-11-15T16:57:28.344Z,42.47
2022-11-15T17:00:00.051Z,40.90
2022-11-15T17:02:31.004Z,42.63
2022-11-15T17:05:15.953Z,39.60
2022-11-15T17:07:54.543Z,39.45
2022-11-15T17:10:27.099Z,40.17
2022-11-15T17:12:58.596Z,42.97
2022-11-15T17:15:29.761Z,42.85
2022-11-15T17:18:00.973Z,42.53
2022-11-15T17:20:35.199Z,43.58
2022-11-15T17:23:13.737Z,47.42
2022-11-15T17:25:49.542Z,48.90
2022-11-15T17:28:23.952Z,56.50
2022-11-15T17:30:57.634Z,47.00
2022-11-15T17:33:34.347Z,52.15
2022-11-15T17:36:09.417Z,59.47
2022-11-15T17:38:46.203Z,57.42
2022-11-15T17:41:18.612Z,52.17
2022-11-15T17:43:51.946Z,50.70
2022-11-15T17:46:25.007Z,43.80
2022-11-15T17:48:59.343Z,43.85
2022-11-15T17:51:33.657Z,41.92
2022-11-15T17:54:15.860Z,45.88
2022-11-15T17:56:46.516Z,45.38
2022-11-15T17:59:21.118Z,41.30
2022-11-15T18:01:54.298Z,42.83
2022-11-15T18:04:28.526Z,48.03
2022-11-15T18:07:00.467Z,40.50
2022-11-15T18:12:03.837Z,44.13
2022-11-15T18:14:34.577Z,40.25
2022-11-15T18:17:05.233Z,52.95
2022-11-15T18:19:36.806Z,46.58
2022-11-15T18:22:10.153Z,41.17
2022-11-15T18:24:43.236Z,43.95
2022-11-15T18:27:14.349Z,54.08
2022-11-15T18:29:45.530Z,49.57
2022-11-15T18:32:18.079Z,52.08
2022-11-15T18:34:49.648Z,51.08
2022-11-15T18:37:20.676Z,53.90
2022-11-15T18:39:54.094Z,54.40
2022-11-15T18:42:31.148Z,48.42
2022-11-15T18:45:03.026Z,50.40
2022-11-15T18:47:34.386Z,49.85
2022-11-15T18:50:08.600Z,53.20
2022-11-15T18:52:44.598Z,55.97
2022-11-15T18:55:17.518Z,56.88
2022-11-15T18:57:55.913Z,51.75
2022-11-15T19:00:29.511Z,53.95
2022-11-15T19:03:03.633Z,52.95
2022-11-15T19:05:37.876Z,48.08
2022-11-15T19:08:09.649Z,50.13
2022-11-15T19:16:06.628Z,48.28
2022-11-15T19:18:42.276Z,44.63
2022-11-15T19:21:17.603Z,52.22
2022-11-15T19:23:53.828Z,49.42
2022-11-15T19:26:30.640Z,46.85
2022-11-15T19:29:31.525Z,51.83
2022-11-15T19:32:04.239Z,48.10
2022-11-15T19:37:06.657Z,45.47
2022-11-15T19:39:41.416Z,52.65
2022-11-15T19:42:16.659Z,52.38
2022-11-15T19:44:48.311Z,51.10
2022-11-15T19:47:19.517Z,54.30
2022-11-15T19:49:52.393Z,47.63
2022-11-15T19:52:25.009Z,53.33
2022-11-15T19:55:00.367Z,51.53
2022-11-15T19:57:34.620Z,51.40
2022-11-15T20:00:09.776Z,48.03
2022-11-15T20:02:40.747Z,49.50
2022-11-15T20:05:17.151Z,51.67
2022-11-15T20:07:52.060Z,46.08
2022-11-15T20:10:26.572Z,47.50
2022-11-15T20:13:02.663Z,46.00
2022-11-15T20:15:35.161Z,47.08
2022-11-15T20:18:05.461Z,42.72
2022-11-15T20:20:38.043Z,44.60
2022-11-15T20:23:13.027Z,52.30
2022-11-15T20:25:49.251Z,48.28
2022-11-15T20:28:24.583Z,46.13
2022-11-15T20:30:57.272Z,44.80
2022-11-15T20:33:33.537Z,45.65
2022-11-15T20:36:13.384Z,43.53
2022-11-15T20:38:44.752Z,46.08
2022-11-15T20:41:19.233Z,43.95
2022-11-15T20:43:51.971Z,46.45
2022-11-15T20:46:23.123Z,38.58
2022-11-15T20:48:53.803Z,44.20
2022-11-15T20:51:24.481Z,44.97
2022-11-15T20:53:54.611Z,44.42
2022-11-15T20:56:25.677Z,40.40
2022-11-15T20:58:57.331Z,50.73
2022-11-15T21:01:27.990Z,49.30
2022-11-15T21:03:58.771Z,56.90
2022-11-15T21:06:31.299Z,49.95
2022-11-15T21:09:20.890Z,57.80
2022-11-15T21:12:09.293Z,55.80
2022-11-15T21:14:43.303Z,54.55
2022-11-15T21:17:13.924Z,55.92
2022-11-15T21:19:44.414Z,48.25
2022-11-15T21:22:16.661Z,48.58
2022-11-15T21:24:47.109Z,47.28
2022-11-15T21:27:20.002Z,43.33
2022-11-15T21:29:52.719Z,42.63
2022-11-15T21:32:23.443Z,44.67
2022-11-15T21:34:54.623Z,38.78
2022-11-15T21:37:25.360Z,38.38
2022-11-15T21:39:56.070Z,40.70
2022-11-15T21:42:26.611Z,61.65
2022-11-15T21:44:58.241Z,48.88
2022-11-15T21:47:28.780Z,45.80
2022-11-15T21:49:58.941Z,44.10
2022-11-15T21:52:29.692Z,47.13
2022-11-15T21:54:59.801Z,43.53
2022-11-15T21:57:30.540Z,47.53
2022-11-15T22:00:20.977Z,49.22
2022-11-15T22:02:51.461Z,43.42
2022-11-15T22:05:21.599Z,42.53
2022-11-15T22:07:52.379Z,44.28
2022-11-15T22:10:22.595Z,42.78
2022-11-15T22:12:53.350Z,42.20
2022-11-15T22:15:25.079Z,46.47
2022-11-15T22:18:01.939Z,45.55
2022-11-15T22:20:47.483Z,41.63
2022-11-15T22:23:18.292Z,42.70
2022-11-15T22:25:48.703Z,43.95
2022-11-15T22:28:19.919Z,42.15
2022-11-15T22:30:53.509Z,50.05
2022-11-15T22:33:27.209Z,44.97
2022-11-15T22:35:57.914Z,44.42
2022-11-15T22:38:29.630Z,49.75
2022-11-15T22:41:00.549Z,39.63
2022-11-15T22:43:31.478Z,42.42
2022-11-15T22:46:04.500Z,48.20
2022-11-15T22:48:37.072Z,42.17
2022-11-15T22:51:08.570Z,47.42
2022-11-15T22:53:39.501Z,44.40
2022-11-15T22:56:14.076Z,46.83
2022-11-15T22:58:47.203Z,45.63
2022-11-15T23:01:23.042Z,46.10
2022-11-15T23:03:54.058Z,49.65
2022-11-15T23:06:24.896Z,48.90
2022-11-15T23:08:56.761Z,50.53
2022-11-15T23:11:44.184Z,58.05
2022-11-15T23:14:14.980Z,43.60
2022-11-15T23:16:46.956Z,43.15
2022-11-15T23:19:18.272Z,40.88
2022-11-15T23:22:06.610Z,43.53
2022-11-15T23:24:37.600Z,41.83
2022-11-15T23:27:09.939Z,43.53
2022-11-15T23:29:55.143Z,37.17
2022-11-15T23:32:44.135Z,52.05
2022-11-15T23:35:15.012Z,44.15
2022-11-15T23:37:45.700Z,42.63
2022-11-15T23:40:17.157Z,41.10
2022-11-15T23:42:47.581Z,40.47
2022-11-15T23:45:18.642Z,37.17
2022-11-15T23:47:50.632Z,43.20
2022-11-15T23:50:21.434Z,43.47
2022-11-15T23:52:51.777Z,40.65
2022-11-15T23:55:22.795Z,36.25
2022-11-15T23:57:53.435Z,42.80
